Diplodus — CUQZ9 — position and weather

sailwx.info

Track history (hours):
 
Tides and Currents Weather Stations Pressure Air Temp Water Temp Dewpoint Dewpoint Depression Visibility Wind Speed Wind Dir Waves Ship Positions

Diplodus

Last reported at 2017-Oct-01 06:21 UTC. Time now 2017-Oct-18 18:44 UTC.
Position N 37°00' W 008°11'.
Warning: this ship's position is 17 days out of date.

Length 18 m.

Type: Fishing. MMSI: 263415350.

Date/timePositionNaut miles runAvg speedWind from/ knotsBaromVisibWave heightAir tempDewpointWater temp
2017-Oct-01 06:21N 37°00' W 008°11'3 8.5
2017-Oct-01 05:59N 37°01' W 008°14'4 8.5
2017-Oct-01 05:30N 37°02' W 008°19'4 8.6
2017-Oct-01 05:00N 37°04' W 008°24'4 8.9
2017-Oct-01 04:30N 37°05' W 008°29'3 6.7
2017-Oct-01 04:00N 37°08' W 008°32'0 0.1
2017-Oct-01 03:30N 37°08' W 008°32'0 0.0
2017-Oct-01 03:00N 37°08' W 008°32'67 2.7
2017-Sep-30 02:00N 38°06' W 009°12'5 9.6
2017-Sep-30 01:30N 38°11' W 009°14'9 9.5
2017-Sep-30 00:34N 38°20' W 009°17'1 9.1
2017-Sep-30 00:30N 38°20' W 009°17'5 8.9
2017-Sep-30 00:00N 38°25' W 009°18'5 9.2
2017-Sep-29 23:28N 38°30' W 009°18'4 9.1
2017-Sep-29 23:00N 38°34' W 009°19'5 9.3
2017-Sep-29 22:30N 38°38' W 009°19'4 7.7
2017-Sep-29 22:00N 38°41' W 009°16'2 3.4
2017-Sep-29 21:30N 38°42' W 009°14'0 0.0
2017-Sep-29 21:00N 38°42' W 009°14'0 0.0
2017-Sep-29 20:30N 38°42' W 009°14'0 0.0
2017-Sep-29 19:59N 38°42' W 009°14'0 0.0
2017-Sep-29 19:30N 38°42' W 009°14'0 0.0
2017-Sep-29 19:00N 38°42' W 009°14'0 0.0
2017-Sep-29 18:29N 38°42' W 009°14'0 0.0
2017-Sep-29 18:00N 38°42' W 009°14'0 0.0
2017-Sep-29 17:29N 38°42' W 009°14'0 0.0
2017-Sep-29 16:59N 38°42' W 009°14'0 0.0
2017-Sep-29 16:30N 38°42' W 009°14'0 0.0
2017-Sep-29 15:59N 38°42' W 009°14'0 0.0
2017-Sep-29 15:30N 38°42' W 009°14'0 0.0
2017-Sep-29 15:00N 38°42' W 009°14'0 0.0
2017-Sep-29 14:30N 38°42' W 009°14'0 0.0
2017-Sep-29 14:00N 38°42' W 009°14'0 0.0
2017-Sep-29 13:28N 38°42' W 009°14'0 0.0
2017-Sep-29 13:00N 38°42' W 009°14'0 0.0
2017-Sep-29 12:30N 38°42' W 009°14'0 0.0
2017-Sep-29 11:59N 38°42' W 009°14'0 0.1
2017-Sep-29 11:27N 38°42' W 009°14'0 0.0
2017-Sep-29 11:00N 38°42' W 009°14'0 0.0
2017-Sep-29 10:30N 38°42' W 009°14'0 0.0
2017-Sep-29 09:59N 38°42' W 009°14'0 0.0
2017-Sep-29 09:30N 38°42' W 009°14'0 0.0
2017-Sep-29 08:58N 38°42' W 009°14'0 0.0
2017-Sep-29 08:30N 38°42' W 009°14'0 0.0
2017-Sep-29 08:00N 38°42' W 009°14'0 0.0
2017-Sep-29 07:30N 38°42' W 009°14'0 0.0
2017-Sep-29 07:00N 38°42' W 009°14'0 0.0
2017-Sep-29 06:30N 38°42' W 009°14'0 0.0
2017-Sep-29 06:00N 38°42' W 009°14'0 0.0
2017-Sep-29 05:30N 38°42' W 009°14'0 0.0
2017-Sep-29 05:00N 38°42' W 009°14'0 0.0
2017-Sep-29 04:30N 38°42' W 009°14'0 0.0
2017-Sep-29 04:00N 38°42' W 009°14'0 0.0
2017-Sep-29 03:30N 38°42' W 009°14'0 0.0
2017-Sep-29 03:00N 38°42' W 009°14'0 0.0
2017-Sep-29 02:29N 38°42' W 009°14'0 0.0
2017-Sep-29 02:00N 38°42' W 009°14'0 0.0
2017-Sep-29 01:30N 38°42' W 009°14'0 0.0
2017-Sep-29 01:00N 38°42' W 009°14'0 0.0
2017-Sep-29 00:30N 38°42' W 009°14'0 0.0
2017-Sep-28 23:58N 38°42' W 009°14'0 0.0
2017-Sep-28 23:30N 38°42' W 009°14'0 0.0
2017-Sep-28 23:00N 38°42' W 009°14'0 0.0
2017-Sep-28 22:30N 38°42' W 009°14'0 0.0
2017-Sep-28 21:59N 38°42' W 009°14'0 0.0
2017-Sep-28 21:29N 38°42' W 009°14'0 0.0
2017-Sep-28 21:00N 38°42' W 009°14'0 0.0
2017-Sep-28 20:30N 38°42' W 009°14'0 0.0
2017-Sep-28 20:00N 38°42' W 009°14'0 0.0
2017-Sep-28 19:30N 38°42' W 009°14'0 0.0
2017-Sep-28 18:59N 38°42' W 009°14'0 0.0
2017-Sep-28 18:30N 38°42' W 009°14'0 0.0
2017-Sep-28 18:00N 38°42' W 009°14'0 0.0
2017-Sep-28 17:30N 38°42' W 009°14'0 0.0
2017-Sep-28 17:00N 38°42' W 009°14'0 0.0
2017-Sep-28 16:30N 38°42' W 009°14'0 0.0
2017-Sep-28 15:56N 38°42' W 009°14'0 0.3
2017-Sep-28 15:29N 38°42' W 009°14'1 1.5
2017-Sep-28 14:58N 38°41' W 009°13'2 3.8
2017-Sep-28 14:30N 38°42' W 009°10'0 0.0
2017-Sep-28 13:59N 38°42' W 009°10'1 1.2
2017-Sep-28 13:23N 38°42' W 009°09'0 0.1
2017-Sep-28 12:52N 38°42' W 009°09'0 0.0
2017-Sep-28 12:17N 38°42' W 009°09'0 0.0
2017-Sep-28 11:54N 38°42' W 009°09'0 1.1
2017-Sep-28 11:29N 38°42' W 009°10'0 0.5
2017-Sep-28 10:59N 38°42' W 009°10'0 0.2
2017-Sep-28 10:30N 38°42' W 009°10'0 0.2
2017-Sep-28 09:54N 38°42' W 009°10'0 0.1
2017-Sep-28 09:30N 38°42' W 009°10'0 0.2
2017-Sep-28 09:00N 38°42' W 009°10'2 4.0
2017-Sep-28 08:30N 38°41' W 009°13'1 1.1
2017-Sep-28 08:00N 38°42' W 009°14'0 0.0
2017-Sep-28 07:30N 38°42' W 009°14'0 0.0
2017-Sep-28 07:00N 38°42' W 009°14'0 0.0
2017-Sep-28 06:30N 38°42' W 009°14'0 0.0
2017-Sep-28 06:00N 38°42' W 009°14'0 0.0
2017-Sep-28 05:30N 38°42' W 009°14'0 0.0
2017-Sep-28 05:00N 38°42' W 009°14'0 0.0
2017-Sep-28 04:30N 38°42' W 009°14'0 0.0
2017-Sep-28 04:00N 38°42' W 009°14'0 0.0
2017-Sep-28 03:28N 38°42' W 009°14'0 0.0
2017-Sep-28 02:59N 38°42' W 009°14'0 0.0
2017-Sep-28 02:30N 38°42' W 009°14'0 0.0
2017-Sep-28 02:00N 38°42' W 009°14'0 0.0
2017-Sep-28 01:30N 38°42' W 009°14'0 0.0
2017-Sep-28 01:00N 38°42' W 009°14'0 0.0
2017-Sep-28 00:30N 38°42' W 009°14'0 0.0
2017-Sep-28 00:00N 38°42' W 009°14'0 0.0
2017-Sep-27 23:30N 38°42' W 009°14'0 0.0
2017-Sep-27 23:00N 38°42' W 009°14'0 0.0
2017-Sep-27 22:30N 38°42' W 009°14'0 0.0
2017-Sep-27 22:00N 38°42' W 009°14'0 0.0
2017-Sep-27 21:30N 38°42' W 009°14'0 0.0
2017-Sep-27 20:59N 38°42' W 009°14'0 0.0
2017-Sep-27 20:30N 38°42' W 009°14'0 0.0
2017-Sep-27 20:00N 38°42' W 009°14'0 0.0
2017-Sep-27 19:30N 38°42' W 009°14'0 0.0
2017-Sep-27 19:00N 38°42' W 009°14'0 0.0
2017-Sep-27 18:30N 38°42' W 009°14'0 0.0
2017-Sep-27 17:59N 38°42' W 009°14'0 0.0
2017-Sep-27 17:30N 38°42' W 009°14'0 0.0
2017-Sep-27 17:00N 38°42' W 009°14'0 0.3
2017-Sep-27 16:30N 38°41' W 009°14'2 3.5
2017-Sep-27 16:00N 38°42' W 009°11'1 2.1
2017-Sep-27 15:29N 38°42' W 009°10'1 2.8
2017-Sep-27 15:00N 38°42' W 009°08'0 0.5
2017-Sep-27 14:30N 38°42' W 009°08'0 0.5
2017-Sep-27 14:00N 38°42' W 009°08'0 0.4
2017-Sep-27 13:30N 38°42' W 009°08'0 0.1
2017-Sep-27 13:00N 38°42' W 009°08'1 1.1
2017-Sep-27 12:30N 38°42' W 009°07'0 0.3
2017-Sep-27 11:59N 38°43' W 009°07'1 1.6
2017-Sep-27 11:30N 38°42' W 009°08'0 0.2
2017-Sep-27 10:59N 38°42' W 009°08'0 0.4
2017-Sep-27 10:30N 38°42' W 009°08'0 0.4
2017-Sep-27 10:00N 38°42' W 009°08'0 0.2
2017-Sep-27 09:30N 38°42' W 009°08'2 3.0
2017-Sep-27 08:53N 38°42' W 009°10'3 6.9
2017-Sep-27 08:30N 38°42' W 009°14'0 0.0
2017-Sep-27 08:00N 38°42' W 009°14'0 0.0
2017-Sep-27 07:30N 38°42' W 009°14'0 0.0
2017-Sep-27 07:00N 38°42' W 009°14'0 0.0
2017-Sep-27 06:30N 38°42' W 009°14'0 0.0
2017-Sep-27 06:00N 38°42' W 009°14'0 0.0
2017-Sep-27 05:30N 38°42' W 009°14'0 0.0
2017-Sep-27 04:59N 38°42' W 009°14'0 0.0
2017-Sep-27 04:30N 38°42' W 009°14'0 0.0
2017-Sep-27 04:00N 38°42' W 009°14'0 0.0
2017-Sep-27 03:30N 38°42' W 009°14'0 0.0
2017-Sep-27 02:59N 38°42' W 009°14'0 0.0
2017-Sep-27 02:30N 38°42' W 009°14'0 0.0
2017-Sep-27 02:00N 38°42' W 009°14'0 0.0
2017-Sep-27 01:28N 38°42' W 009°14'0 0.0
2017-Sep-27 01:00N 38°42' W 009°14'0 0.0
2017-Sep-27 00:30N 38°42' W 009°14'0 0.0
2017-Sep-27 00:00N 38°42' W 009°14'0 0.0
2017-Sep-26 23:30N 38°42' W 009°14'0 0.0
2017-Sep-26 23:00N 38°42' W 009°14'0 0.0
2017-Sep-26 22:30N 38°42' W 009°14'0 0.0
2017-Sep-26 22:00N 38°42' W 009°14'0 0.0
2017-Sep-26 21:30N 38°42' W 009°14'0 0.0
2017-Sep-26 21:00N 38°42' W 009°14'0 0.0
2017-Sep-26 20:30N 38°42' W 009°14'0 0.0
2017-Sep-26 20:00N 38°42' W 009°14'0 0.0
2017-Sep-26 19:30N 38°42' W 009°14'0 0.0
2017-Sep-26 19:00N 38°42' W 009°14'0 0.0
2017-Sep-26 18:30N 38°42' W 009°14'0 0.0
2017-Sep-26 18:00N 38°42' W 009°14'0 0.0
2017-Sep-26 17:28N 38°42' W 009°14'0 0.0
2017-Sep-26 17:00N 38°42' W 009°14'6 4.6
2017-Sep-26 15:38N 38°44' W 009°06'0 1.0
2017-Sep-26 15:27N 38°43' W 009°06'4 0.7
2017-Sep-26 10:25N 38°47' W 009°05'4 3.9
2017-Sep-26 09:19N 38°43' W 009°07'3 7.0
2017-Sep-26 08:57N 38°42' W 009°10'3 6.5
2017-Sep-26 08:29N 38°42' W 009°14'0 0.1
2017-Sep-26 08:00N 38°42' W 009°14'0 0.0
2017-Sep-26 07:30N 38°42' W 009°14'0 0.0
2017-Sep-26 07:00N 38°42' W 009°14'0 0.0
2017-Sep-26 06:30N 38°42' W 009°14'0 0.0
2017-Sep-26 06:00N 38°42' W 009°14'0 0.0
2017-Sep-26 05:30N 38°42' W 009°14'0 0.0
2017-Sep-26 05:00N 38°42' W 009°14'0 0.0
2017-Sep-26 04:30N 38°42' W 009°14'0 0.0
2017-Sep-26 04:00N 38°42' W 009°14'0 0.0
2017-Sep-26 03:30N 38°42' W 009°14'0 0.0
2017-Sep-26 03:00N 38°42' W 009°14'0 0.0
2017-Sep-26 02:30N 38°42' W 009°14'0 0.0
2017-Sep-26 02:00N 38°42' W 009°14'0 0.0
2017-Sep-26 01:30N 38°42' W 009°14'0 0.0
2017-Sep-26 00:59N 38°42' W 009°14'0 0.0
2017-Sep-26 00:30N 38°42' W 009°14'0 0.0
2017-Sep-26 00:00N 38°42' W 009°14'0 0.0
2017-Sep-25 23:30N 38°42' W 009°14'0 0.0
2017-Sep-25 23:00N 38°42' W 009°14'0 0.0
2017-Sep-25 22:30N 38°42' W 009°14'0 0.0
2017-Sep-25 21:59N 38°42' W 009°14'0 0.0
2017-Sep-25 21:30N 38°42' W 009°14'0 0.0
2017-Sep-25 21:00N 38°42' W 009°14'0 0.0
2017-Sep-25 20:30N 38°42' W 009°14'0 0.0
2017-Sep-25 20:00N 38°42' W 009°14'0 0.0
2017-Sep-25 19:30N 38°42' W 009°14'0 0.0
2017-Sep-25 19:00N 38°42' W 009°14'0 0.0
2017-Sep-25 18:30N 38°42' W 009°14'0 0.0
2017-Sep-25 18:00N 38°42' W 009°14'0 0.0
2017-Sep-25 17:30N 38°42' W 009°14'0 0.0
2017-Sep-25 17:00N 38°42' W 009°14'4 6.7
2017-Sep-25 16:28N 38°42' W 009°09'3 7.3
2017-Sep-25 16:00N 38°44' W 009°06'3 6.0
2017-Sep-25 15:30N 38°47' W 009°05'0 0.1
2017-Sep-25 15:00N 38°47' W 009°05'0 0.1
2017-Sep-25 14:30N 38°47' W 009°05'5 1.5
2017-Sep-25 11:05N 38°42' W 009°07'1 7.5
2017-Sep-25 11:00N 38°42' W 009°08'4 7.3
2017-Sep-25 10:30N 38°41' W 009°13'1 1.5
2017-Sep-25 09:59N 38°42' W 009°14'0 0.0
2017-Sep-25 09:30N 38°42' W 009°14'0 0.0
2017-Sep-25 09:00N 38°42' W 009°14'0 0.0
2017-Sep-25 08:30N 38°42' W 009°14'0 0.0
2017-Sep-25 08:00N 38°42' W 009°14'0 0.0
2017-Sep-25 07:29N 38°42' W 009°14'0 0.0
2017-Sep-25 07:00N 38°42' W 009°14'0 0.0
2017-Sep-25 06:30N 38°42' W 009°14'0 0.0
2017-Sep-25 06:00N 38°42' W 009°14'0 0.0
2017-Sep-25 05:30N 38°42' W 009°14'0 0.0
2017-Sep-25 05:00N 38°42' W 009°14'0 0.0
2017-Sep-25 04:30N 38°42' W 009°14'0 0.0
2017-Sep-25 04:00N 38°42' W 009°14'0 0.0
2017-Sep-25 03:30N 38°42' W 009°14'0 0.0
2017-Sep-25 03:00N 38°42' W 009°14'0 0.0
2017-Sep-25 02:30N 38°42' W 009°14'0 0.0
2017-Sep-25 02:00N 38°42' W 009°14'0 0.0
2017-Sep-25 01:30N 38°42' W 009°14'0 0.0
2017-Sep-25 01:00N 38°42' W 009°14'0 0.0
2017-Sep-25 00:30N 38°42' W 009°14'0 0.0
2017-Sep-25 00:00N 38°42' W 009°14'0 0.0
2017-Sep-24 23:29N 38°42' W 009°14'0 0.0
2017-Sep-24 23:00N 38°42' W 009°14'0 0.0
2017-Sep-24 22:30N 38°42' W 009°14'0 0.0
2017-Sep-24 21:59N 38°42' W 009°14'0 0.0
2017-Sep-24 21:30N 38°42' W 009°14'0 0.0
2017-Sep-24 21:00N 38°42' W 009°14'0 0.0
2017-Sep-24 20:30N 38°42' W 009°14'0 0.0
2017-Sep-24 20:00N 38°42' W 009°14'0 0.0
2017-Sep-24 19:30N 38°42' W 009°14'0 0.0
2017-Sep-24 19:00N 38°42' W 009°14'0 0.0
2017-Sep-24 18:30N 38°42' W 009°14'0 0.0
2017-Sep-24 18:00N 38°42' W 009°14'0 0.0
2017-Sep-24 17:29N 38°42' W 009°14'0 0.0
2017-Sep-24 17:00N 38°42' W 009°14'0 0.0
2017-Sep-24 16:30N 38°42' W 009°14'0 0.0
2017-Sep-24 16:00N 38°42' W 009°14'0 0.0
2017-Sep-24 15:28N 38°42' W 009°14'0 0.0
2017-Sep-24 15:00N 38°42' W 009°14'0 0.0
2017-Sep-24 14:30N 38°42' W 009°14'0 0.0
2017-Sep-24 14:00N 38°42' W 009°14'0 0.0
2017-Sep-24 13:30N 38°42' W 009°14'0 0.0
2017-Sep-24 13:00N 38°42' W 009°14'0 0.0
2017-Sep-24 12:30N 38°42' W 009°14'0 0.0
2017-Sep-24 12:00N 38°42' W 009°14'0 0.0
2017-Sep-24 11:30N 38°42' W 009°14'0 0.0
2017-Sep-24 11:00N 38°42' W 009°14'0 0.5
2017-Sep-24 10:30N 38°41' W 009°14'3 6.9
2017-Sep-24 10:00N 38°40' W 009°18'4 7.3
2017-Sep-24 09:30N 38°37' W 009°17'4 8.8
2017-Sep-24 09:00N 38°33' W 009°15'5 8.8
2017-Sep-24 08:25N 38°28' W 009°14'4 9.1
2017-Sep-24 08:00N 38°24' W 009°14'5 9.0
2017-Sep-24 07:30N 38°21' W 009°09'5 8.9
2017-Sep-24 06:54N 38°16' W 009°06'4 8.8
2017-Sep-24 06:26N 38°13' W 009°03'4 9.0
2017-Sep-24 06:00N 38°09' W 009°01'5 9.1
2017-Sep-24 05:30N 38°05' W 008°58'5 9.2
2017-Sep-24 05:00N 38°01' W 008°56'4 8.9
2017-Sep-24 04:30N 37°57' W 008°54'2 4.5
2017-Sep-24 04:00N 37°57' W 008°52'0 0.0
2017-Sep-24 03:30N 37°57' W 008°52'0 0.0
2017-Sep-24 03:00N 37°57' W 008°52'0 0.0
2017-Sep-24 02:30N 37°57' W 008°52'0 0.0
2017-Sep-24 02:00N 37°57' W 008°52'0 0.0
2017-Sep-24 01:30N 37°57' W 008°52'0 0.0
2017-Sep-24 01:00N 37°57' W 008°52'0 0.0
2017-Sep-24 00:30N 37°57' W 008°52'0 0.0
2017-Sep-24 00:00N 37°57' W 008°52'0 0.0
2017-Sep-23 23:30N 37°57' W 008°52'0 0.0
2017-Sep-23 23:00N 37°57' W 008°52'0 0.0
2017-Sep-23 22:30N 37°57' W 008°52'0 0.0
2017-Sep-23 22:00N 37°57' W 008°52'0 0.0
2017-Sep-23 21:30N 37°57' W 008°52'0 0.0
2017-Sep-23 21:00N 37°57' W 008°52'0 0.0
2017-Sep-23 20:30N 37°57' W 008°52'0 0.0
2017-Sep-23 20:00N 37°57' W 008°52'  
Track history (hours):
 
Tides and Currents Weather Stations Pressure Air Temp Water Temp Dewpoint Dewpoint Depression Visibility Wind Speed Wind Dir Waves Ship Positions

Diplodus

Last reported at 2017-Oct-01 06:21 UTC. Time now 2017-Oct-18 18:44 UTC.
Position N 37°00' W 008°11'.
Warning: this ship's position is 17 days out of date.

Length 18 m.

Type: Fishing. MMSI: 263415350.

Date/timePositionNaut miles runAvg speedWind from/ knotsBaromVisibWave heightAir tempDewpointWater temp
2017-Oct-01 06:21N 37°00' W 008°11'3 8.5
2017-Oct-01 05:59N 37°01' W 008°14'4 8.5
2017-Oct-01 05:30N 37°02' W 008°19'4 8.6
2017-Oct-01 05:00N 37°04' W 008°24'4 8.9
2017-Oct-01 04:30N 37°05' W 008°29'3 6.7
2017-Oct-01 04:00N 37°08' W 008°32'0 0.1
2017-Oct-01 03:30N 37°08' W 008°32'0 0.0
2017-Oct-01 03:00N 37°08' W 008°32'67 2.7
2017-Sep-30 02:00N 38°06' W 009°12'5 9.6
2017-Sep-30 01:30N 38°11' W 009°14'9 9.5
2017-Sep-30 00:34N 38°20' W 009°17'1 9.1
2017-Sep-30 00:30N 38°20' W 009°17'5 8.9
2017-Sep-30 00:00N 38°25' W 009°18'5 9.2
2017-Sep-29 23:28N 38°30' W 009°18'4 9.1
2017-Sep-29 23:00N 38°34' W 009°19'5 9.3
2017-Sep-29 22:30N 38°38' W 009°19'4 7.7
2017-Sep-29 22:00N 38°41' W 009°16'2 3.4
2017-Sep-29 21:30N 38°42' W 009°14'0 0.0
2017-Sep-29 21:00N 38°42' W 009°14'0 0.0
2017-Sep-29 20:30N 38°42' W 009°14'0 0.0
2017-Sep-29 19:59N 38°42' W 009°14'0 0.0
2017-Sep-29 19:30N 38°42' W 009°14'0 0.0
2017-Sep-29 19:00N 38°42' W 009°14'0 0.0
2017-Sep-29 18:29N 38°42' W 009°14'0 0.0
2017-Sep-29 18:00N 38°42' W 009°14'0 0.0
2017-Sep-29 17:29N 38°42' W 009°14'0 0.0
2017-Sep-29 16:59N 38°42' W 009°14'0 0.0
2017-Sep-29 16:30N 38°42' W 009°14'0 0.0
2017-Sep-29 15:59N 38°42' W 009°14'0 0.0
2017-Sep-29 15:30N 38°42' W 009°14'0 0.0
2017-Sep-29 15:00N 38°42' W 009°14'0 0.0
2017-Sep-29 14:30N 38°42' W 009°14'0 0.0
2017-Sep-29 14:00N 38°42' W 009°14'0 0.0
2017-Sep-29 13:28N 38°42' W 009°14'0 0.0
2017-Sep-29 13:00N 38°42' W 009°14'0 0.0
2017-Sep-29 12:30N 38°42' W 009°14'0 0.0
2017-Sep-29 11:59N 38°42' W 009°14'0 0.1
2017-Sep-29 11:27N 38°42' W 009°14'0 0.0
2017-Sep-29 11:00N 38°42' W 009°14'0 0.0
2017-Sep-29 10:30N 38°42' W 009°14'0 0.0
2017-Sep-29 09:59N 38°42' W 009°14'0 0.0
2017-Sep-29 09:30N 38°42' W 009°14'0 0.0
2017-Sep-29 08:58N 38°42' W 009°14'0 0.0
2017-Sep-29 08:30N 38°42' W 009°14'0 0.0
2017-Sep-29 08:00N 38°42' W 009°14'0 0.0
2017-Sep-29 07:30N 38°42' W 009°14'0 0.0
2017-Sep-29 07:00N 38°42' W 009°14'0 0.0
2017-Sep-29 06:30N 38°42' W 009°14'0 0.0
2017-Sep-29 06:00N 38°42' W 009°14'0 0.0
2017-Sep-29 05:30N 38°42' W 009°14'0 0.0
2017-Sep-29 05:00N 38°42' W 009°14'0 0.0
2017-Sep-29 04:30N 38°42' W 009°14'0 0.0
2017-Sep-29 04:00N 38°42' W 009°14'0 0.0
2017-Sep-29 03:30N 38°42' W 009°14'0 0.0
2017-Sep-29 03:00N 38°42' W 009°14'0 0.0
2017-Sep-29 02:29N 38°42' W 009°14'0 0.0
2017-Sep-29 02:00N 38°42' W 009°14'0 0.0
2017-Sep-29 01:30N 38°42' W 009°14'0 0.0
2017-Sep-29 01:00N 38°42' W 009°14'0 0.0
2017-Sep-29 00:30N 38°42' W 009°14'0 0.0
2017-Sep-28 23:58N 38°42' W 009°14'0 0.0
2017-Sep-28 23:30N 38°42' W 009°14'0 0.0
2017-Sep-28 23:00N 38°42' W 009°14'0 0.0
2017-Sep-28 22:30N 38°42' W 009°14'0 0.0
2017-Sep-28 21:59N 38°42' W 009°14'0 0.0
2017-Sep-28 21:29N 38°42' W 009°14'0 0.0
2017-Sep-28 21:00N 38°42' W 009°14'0 0.0
2017-Sep-28 20:30N 38°42' W 009°14'0 0.0
2017-Sep-28 20:00N 38°42' W 009°14'0 0.0
2017-Sep-28 19:30N 38°42' W 009°14'0 0.0
2017-Sep-28 18:59N 38°42' W 009°14'0 0.0
2017-Sep-28 18:30N 38°42' W 009°14'0 0.0
2017-Sep-28 18:00N 38°42' W 009°14'0 0.0
2017-Sep-28 17:30N 38°42' W 009°14'0 0.0
2017-Sep-28 17:00N 38°42' W 009°14'0 0.0
2017-Sep-28 16:30N 38°42' W 009°14'0 0.0
2017-Sep-28 15:56N 38°42' W 009°14'0 0.3
2017-Sep-28 15:29N 38°42' W 009°14'1 1.5
2017-Sep-28 14:58N 38°41' W 009°13'2 3.8
2017-Sep-28 14:30N 38°42' W 009°10'0 0.0
2017-Sep-28 13:59N 38°42' W 009°10'1 1.2
2017-Sep-28 13:23N 38°42' W 009°09'0 0.1
2017-Sep-28 12:52N 38°42' W 009°09'0 0.0
2017-Sep-28 12:17N 38°42' W 009°09'0 0.0
2017-Sep-28 11:54N 38°42' W 009°09'0 1.1
2017-Sep-28 11:29N 38°42' W 009°10'0 0.5
2017-Sep-28 10:59N 38°42' W 009°10'0 0.2
2017-Sep-28 10:30N 38°42' W 009°10'0 0.2
2017-Sep-28 09:54N 38°42' W 009°10'0 0.1
2017-Sep-28 09:30N 38°42' W 009°10'0 0.2
2017-Sep-28 09:00N 38°42' W 009°10'2 4.0
2017-Sep-28 08:30N 38°41' W 009°13'1 1.1
2017-Sep-28 08:00N 38°42' W 009°14'0 0.0
2017-Sep-28 07:30N 38°42' W 009°14'0 0.0
2017-Sep-28 07:00N 38°42' W 009°14'0 0.0
2017-Sep-28 06:30N 38°42' W 009°14'0 0.0
2017-Sep-28 06:00N 38°42' W 009°14'0 0.0
2017-Sep-28 05:30N 38°42' W 009°14'0 0.0
2017-Sep-28 05:00N 38°42' W 009°14'0 0.0
2017-Sep-28 04:30N 38°42' W 009°14'0 0.0
2017-Sep-28 04:00N 38°42' W 009°14'0 0.0
2017-Sep-28 03:28N 38°42' W 009°14'0 0.0
2017-Sep-28 02:59N 38°42' W 009°14'0 0.0
2017-Sep-28 02:30N 38°42' W 009°14'0 0.0
2017-Sep-28 02:00N 38°42' W 009°14'0 0.0
2017-Sep-28 01:30N 38°42' W 009°14'0 0.0
2017-Sep-28 01:00N 38°42' W 009°14'0 0.0
2017-Sep-28 00:30N 38°42' W 009°14'0 0.0
2017-Sep-28 00:00N 38°42' W 009°14'0 0.0
2017-Sep-27 23:30N 38°42' W 009°14'0 0.0
2017-Sep-27 23:00N 38°42' W 009°14'0 0.0
2017-Sep-27 22:30N 38°42' W 009°14'0 0.0
2017-Sep-27 22:00N 38°42' W 009°14'0 0.0
2017-Sep-27 21:30N 38°42' W 009°14'0 0.0
2017-Sep-27 20:59N 38°42' W 009°14'0 0.0
2017-Sep-27 20:30N 38°42' W 009°14'0 0.0
2017-Sep-27 20:00N 38°42' W 009°14'0 0.0
2017-Sep-27 19:30N 38°42' W 009°14'0 0.0
2017-Sep-27 19:00N 38°42' W 009°14'0 0.0
2017-Sep-27 18:30N 38°42' W 009°14'0 0.0
2017-Sep-27 17:59N 38°42' W 009°14'0 0.0
2017-Sep-27 17:30N 38°42' W 009°14'0 0.0
2017-Sep-27 17:00N 38°42' W 009°14'0 0.3
2017-Sep-27 16:30N 38°41' W 009°14'2 3.5
2017-Sep-27 16:00N 38°42' W 009°11'1 2.1
2017-Sep-27 15:29N 38°42' W 009°10'1 2.8
2017-Sep-27 15:00N 38°42' W 009°08'0 0.5
2017-Sep-27 14:30N 38°42' W 009°08'0 0.5
2017-Sep-27 14:00N 38°42' W 009°08'0 0.4
2017-Sep-27 13:30N 38°42' W 009°08'0 0.1
2017-Sep-27 13:00N 38°42' W 009°08'1 1.1
2017-Sep-27 12:30N 38°42' W 009°07'0 0.3
2017-Sep-27 11:59N 38°43' W 009°07'1 1.6
2017-Sep-27 11:30N 38°42' W 009°08'0 0.2
2017-Sep-27 10:59N 38°42' W 009°08'0 0.4
2017-Sep-27 10:30N 38°42' W 009°08'0 0.4
2017-Sep-27 10:00N 38°42' W 009°08'0 0.2
2017-Sep-27 09:30N 38°42' W 009°08'2 3.0
2017-Sep-27 08:53N 38°42' W 009°10'3 6.9
2017-Sep-27 08:30N 38°42' W 009°14'0 0.0
2017-Sep-27 08:00N 38°42' W 009°14'0 0.0
2017-Sep-27 07:30N 38°42' W 009°14'0 0.0
2017-Sep-27 07:00N 38°42' W 009°14'0 0.0
2017-Sep-27 06:30N 38°42' W 009°14'0 0.0
2017-Sep-27 06:00N 38°42' W 009°14'0 0.0
2017-Sep-27 05:30N 38°42' W 009°14'0 0.0
2017-Sep-27 04:59N 38°42' W 009°14'0 0.0
2017-Sep-27 04:30N 38°42' W 009°14'0 0.0
2017-Sep-27 04:00N 38°42' W 009°14'0 0.0
2017-Sep-27 03:30N 38°42' W 009°14'0 0.0
2017-Sep-27 02:59N 38°42' W 009°14'0 0.0
2017-Sep-27 02:30N 38°42' W 009°14'0 0.0
2017-Sep-27 02:00N 38°42' W 009°14'0 0.0
2017-Sep-27 01:28N 38°42' W 009°14'0 0.0
2017-Sep-27 01:00N 38°42' W 009°14'0 0.0
2017-Sep-27 00:30N 38°42' W 009°14'0 0.0
2017-Sep-27 00:00N 38°42' W 009°14'0 0.0
2017-Sep-26 23:30N 38°42' W 009°14'0 0.0
2017-Sep-26 23:00N 38°42' W 009°14'0 0.0
2017-Sep-26 22:30N 38°42' W 009°14'0 0.0
2017-Sep-26 22:00N 38°42' W 009°14'0 0.0
2017-Sep-26 21:30N 38°42' W 009°14'0 0.0
2017-Sep-26 21:00N 38°42' W 009°14'0 0.0
2017-Sep-26 20:30N 38°42' W 009°14'0 0.0
2017-Sep-26 20:00N 38°42' W 009°14'0 0.0
2017-Sep-26 19:30N 38°42' W 009°14'0 0.0
2017-Sep-26 19:00N 38°42' W 009°14'0 0.0
2017-Sep-26 18:30N 38°42' W 009°14'0 0.0
2017-Sep-26 18:00N 38°42' W 009°14'0 0.0
2017-Sep-26 17:28N 38°42' W 009°14'0 0.0
2017-Sep-26 17:00N 38°42' W 009°14'6 4.6
2017-Sep-26 15:38N 38°44' W 009°06'0 1.0
2017-Sep-26 15:27N 38°43' W 009°06'4 0.7
2017-Sep-26 10:25N 38°47' W 009°05'4 3.9
2017-Sep-26 09:19N 38°43' W 009°07'3 7.0
2017-Sep-26 08:57N 38°42' W 009°10'3 6.5
2017-Sep-26 08:29N 38°42' W 009°14'0 0.1
2017-Sep-26 08:00N 38°42' W 009°14'0 0.0
2017-Sep-26 07:30N 38°42' W 009°14'0 0.0
2017-Sep-26 07:00N 38°42' W 009°14'0 0.0
2017-Sep-26 06:30N 38°42' W 009°14'0 0.0
2017-Sep-26 06:00N 38°42' W 009°14'0 0.0
2017-Sep-26 05:30N 38°42' W 009°14'0 0.0
2017-Sep-26 05:00N 38°42' W 009°14'0 0.0
2017-Sep-26 04:30N 38°42' W 009°14'0 0.0
2017-Sep-26 04:00N 38°42' W 009°14'0 0.0
2017-Sep-26 03:30N 38°42' W 009°14'0 0.0
2017-Sep-26 03:00N 38°42' W 009°14'0 0.0
2017-Sep-26 02:30N 38°42' W 009°14'0 0.0
2017-Sep-26 02:00N 38°42' W 009°14'0 0.0
2017-Sep-26 01:30N 38°42' W 009°14'0 0.0
2017-Sep-26 00:59N 38°42' W 009°14'0 0.0
2017-Sep-26 00:30N 38°42' W 009°14'0 0.0
2017-Sep-26 00:00N 38°42' W 009°14'0 0.0
2017-Sep-25 23:30N 38°42' W 009°14'0 0.0
2017-Sep-25 23:00N 38°42' W 009°14'0 0.0
2017-Sep-25 22:30N 38°42' W 009°14'0 0.0
2017-Sep-25 21:59N 38°42' W 009°14'0 0.0
2017-Sep-25 21:30N 38°42' W 009°14'0 0.0
2017-Sep-25 21:00N 38°42' W 009°14'0 0.0
2017-Sep-25 20:30N 38°42' W 009°14'0 0.0
2017-Sep-25 20:00N 38°42' W 009°14'0 0.0
2017-Sep-25 19:30N 38°42' W 009°14'0 0.0
2017-Sep-25 19:00N 38°42' W 009°14'0 0.0
2017-Sep-25 18:30N 38°42' W 009°14'0 0.0
2017-Sep-25 18:00N 38°42' W 009°14'0 0.0
2017-Sep-25 17:30N 38°42' W 009°14'0 0.0
2017-Sep-25 17:00N 38°42' W 009°14'4 6.7
2017-Sep-25 16:28N 38°42' W 009°09'3 7.3
2017-Sep-25 16:00N 38°44' W 009°06'3 6.0
2017-Sep-25 15:30N 38°47' W 009°05'0 0.1
2017-Sep-25 15:00N 38°47' W 009°05'0 0.1
2017-Sep-25 14:30N 38°47' W 009°05'5 1.5
2017-Sep-25 11:05N 38°42' W 009°07'1 7.5
2017-Sep-25 11:00N 38°42' W 009°08'4 7.3
2017-Sep-25 10:30N 38°41' W 009°13'1 1.5
2017-Sep-25 09:59N 38°42' W 009°14'0 0.0
2017-Sep-25 09:30N 38°42' W 009°14'0 0.0
2017-Sep-25 09:00N 38°42' W 009°14'0 0.0
2017-Sep-25 08:30N 38°42' W 009°14'0 0.0
2017-Sep-25 08:00N 38°42' W 009°14'0 0.0
2017-Sep-25 07:29N 38°42' W 009°14'0 0.0
2017-Sep-25 07:00N 38°42' W 009°14'0 0.0
2017-Sep-25 06:30N 38°42' W 009°14'0 0.0
2017-Sep-25 06:00N 38°42' W 009°14'0 0.0
2017-Sep-25 05:30N 38°42' W 009°14'0 0.0
2017-Sep-25 05:00N 38°42' W 009°14'0 0.0
2017-Sep-25 04:30N 38°42' W 009°14'0 0.0
2017-Sep-25 04:00N 38°42' W 009°14'0 0.0
2017-Sep-25 03:30N 38°42' W 009°14'0 0.0
2017-Sep-25 03:00N 38°42' W 009°14'0 0.0
2017-Sep-25 02:30N 38°42' W 009°14'0 0.0
2017-Sep-25 02:00N 38°42' W 009°14'0 0.0
2017-Sep-25 01:30N 38°42' W 009°14'0 0.0
2017-Sep-25 01:00N 38°42' W 009°14'0 0.0
2017-Sep-25 00:30N 38°42' W 009°14'0 0.0
2017-Sep-25 00:00N 38°42' W 009°14'0 0.0
2017-Sep-24 23:29N 38°42' W 009°14'0 0.0
2017-Sep-24 23:00N 38°42' W 009°14'0 0.0
2017-Sep-24 22:30N 38°42' W 009°14'0 0.0
2017-Sep-24 21:59N 38°42' W 009°14'0 0.0
2017-Sep-24 21:30N 38°42' W 009°14'0 0.0
2017-Sep-24 21:00N 38°42' W 009°14'0 0.0
2017-Sep-24 20:30N 38°42' W 009°14'0 0.0
2017-Sep-24 20:00N 38°42' W 009°14'0 0.0
2017-Sep-24 19:30N 38°42' W 009°14'0 0.0
2017-Sep-24 19:00N 38°42' W 009°14'0 0.0
2017-Sep-24 18:30N 38°42' W 009°14'0 0.0
2017-Sep-24 18:00N 38°42' W 009°14'0 0.0
2017-Sep-24 17:29N 38°42' W 009°14'0 0.0
2017-Sep-24 17:00N 38°42' W 009°14'0 0.0
2017-Sep-24 16:30N 38°42' W 009°14'0 0.0
2017-Sep-24 16:00N 38°42' W 009°14'0 0.0
2017-Sep-24 15:28N 38°42' W 009°14'0 0.0
2017-Sep-24 15:00N 38°42' W 009°14'0 0.0
2017-Sep-24 14:30N 38°42' W 009°14'0 0.0
2017-Sep-24 14:00N 38°42' W 009°14'0 0.0
2017-Sep-24 13:30N 38°42' W 009°14'0 0.0
2017-Sep-24 13:00N 38°42' W 009°14'0 0.0
2017-Sep-24 12:30N 38°42' W 009°14'0 0.0
2017-Sep-24 12:00N 38°42' W 009°14'0 0.0
2017-Sep-24 11:30N 38°42' W 009°14'0 0.0
2017-Sep-24 11:00N 38°42' W 009°14'0 0.5
2017-Sep-24 10:30N 38°41' W 009°14'3 6.9
2017-Sep-24 10:00N 38°40' W 009°18'4 7.3
2017-Sep-24 09:30N 38°37' W 009°17'4 8.8
2017-Sep-24 09:00N 38°33' W 009°15'5 8.8
2017-Sep-24 08:25N 38°28' W 009°14'4 9.1
2017-Sep-24 08:00N 38°24' W 009°14'5 9.0
2017-Sep-24 07:30N 38°21' W 009°09'5 8.9
2017-Sep-24 06:54N 38°16' W 009°06'4 8.8
2017-Sep-24 06:26N 38°13' W 009°03'4 9.0
2017-Sep-24 06:00N 38°09' W 009°01'5 9.1
2017-Sep-24 05:30N 38°05' W 008°58'5 9.2
2017-Sep-24 05:00N 38°01' W 008°56'4 8.9
2017-Sep-24 04:30N 37°57' W 008°54'2 4.5
2017-Sep-24 04:00N 37°57' W 008°52'0 0.0
2017-Sep-24 03:30N 37°57' W 008°52'0 0.0
2017-Sep-24 03:00N 37°57' W 008°52'0 0.0
2017-Sep-24 02:30N 37°57' W 008°52'0 0.0
2017-Sep-24 02:00N 37°57' W 008°52'0 0.0
2017-Sep-24 01:30N 37°57' W 008°52'0 0.0
2017-Sep-24 01:00N 37°57' W 008°52'0 0.0
2017-Sep-24 00:30N 37°57' W 008°52'0 0.0
2017-Sep-24 00:00N 37°57' W 008°52'0 0.0
2017-Sep-23 23:30N 37°57' W 008°52'0 0.0
2017-Sep-23 23:00N 37°57' W 008°52'0 0.0
2017-Sep-23 22:30N 37°57' W 008°52'0 0.0
2017-Sep-23 22:00N 37°57' W 008°52'0 0.0
2017-Sep-23 21:30N 37°57' W 008°52'0 0.0
2017-Sep-23 21:00N 37°57' W 008°52'0 0.0
2017-Sep-23 20:30N 37°57' W 008°52'0 0.0
2017-Sep-23 20:00N 37°57' W 008°52'  

Dump ship's entire track history